www.protime.co.bw Contact Us

Botswana Life Classic Run 2018

Age Group Results

October 07, 2018


Protime Sport BW - Powered By ACTIVE IPICO Greenburg (Pty) Ltd


Men: 20-39 40-49 50-99
Women: 12-19 20-34 35-44 45-99

Botswana Life Classic - 21.1km

Top

Junior - Female 12 to 19

Place Name Bib No Overall Total Time
1 MMONYEMANG MASILO 769 12 1:29:54.4
Top

Senior - Female 20 to 34

Place Name Bib No Overall Total Time
1 PHATSIMO MOIKABI GABORONE STRIDERS 711 21 1:49:12.2
2 WAME NTWAYAKGOSI GABORONE STRIDERS 737 39 1:59:49.1
3 AI HOMMA 645 49 2:06:06.2
4 KHUMOETSILE RAKGOMO 656 58 2:09:01.4
5 CHAHA NTHOI RUN WID IT 691 61 2:09:05.2
6 TUMI SETLHAKE 753 90 2:23:06.7
7 NONOFO SEFHEMO 707 91 2:23:06.8
8 KELETSO GAREEBINE GABORONE STRIDERS 742 96 2:28:06.7
9 TAPIWA MASUNGA 638 113 2:35:12.5
10 ATLANG MOMPE 636 116 2:37:39.0
11 TUDUETSO MADI GABORONE STRIDERS 708 120 2:41:12.5
12 REFILWE BOWE GABORONE STRIDERS 743 121 2:41:13.7
13 GORATA RAMASUSWANA BLIL 624 124 2:42:53.6
14 KUTLO TANGANE 661 132 2:50:05.1
15 TSAONE MONTSHO 667 134 2:53:25.1
Top

Vet - Female 35 to 44

Place Name Bib No Overall Total Time
1 ZULEIKHA S STEINBACH GABORONE STRIDERS 721 22 1:51:20.8
2 MERCY MOGOTSI GABORONE STRIDERS 724 24 1:51:43.7
3 GALEBOI SENNANYANA 604 38 1:59:04.0
4 LESEGO NTEBELA BLIL 617 40 1:59:52.2
5 OLERATO MOTSU GABORONE STRIDERS 738 47 2:04:15.0
6 MATSHIDISO PULE GABORONE STRIDERS 733 53 2:06:57.3
7 PANDULENI ELAGO 652 82 2:16:37.2
8 TABOKA MUKE BIFM 612 83 2:16:56.9
9 BATSALELWANG TLADI HRDC 673 84 2:18:27.2
10 KEFILWE MAFELA GABORONE STRIDERS 714 87 2:20:46.4
11 KARABO HAMU 657 88 2:21:19.4
12 GOITSEONE TSHIAMO 651 89 2:21:19.7
13 MALEBOGO CHARLES 760 98 2:29:00.5
14 LEBANG G BALESENG GABORONE STRIDERS 717 102 2:29:37.3
15 MALEBOGO ABOTSENG 635 105 2:29:52.4
16 BONANG KWAPE GABORONE STRIDERS 713 107 2:31:26.5
17 DINTLELO ABBY ALEXANDER FORBES 629 118 2:38:47.0
18 CAROL RATANG KGAFELA 663 119 2:40:25.5
19 CHEDU SESINYI 633 123 2:41:48.3
20 SAADIA ROSSENKHAN 644 126 2:43:46.4
21 SEGAMETSI SETSHANTSHO BANC ABC 688 139 3:09:47.6
Top

Master - Female 45 and Over

Place Name Bib No Overall Total Time
1 BANYANA MADI-SEGWAGWE GABORONE STRIDERS 745 57 2:08:11.2
2 MOGAMETSI PIE 646 73 2:13:09.0
3 NOZIPHO WRIGHT 643 75 2:14:11.9
4 KHUMO KETSHABILE ALEXANDER FORBES 628 114 2:35:54.9
Top

Senior - Male 20 to 39

Place Name Bib No Overall Total Time
1 GODIRAONE NTHOMPE 763 1 1:08:10.2
2 SESEBO MATLAPENG 762 2 1:08:10.5
3 THOLEGO KEITSHEKILE 770 3 1:10:03.0
4 DIKGAKGAMATSO MODISAGAPE 659 4 1:11:54.2
5 JULIUS MONYEKI 640 5 1:12:13.1
6 BATUNGAMILI ZIBANI GABORONE STRIDERS 723 6 1:17:38.4
7 MOTSAMAI BONANG GABORONE STRIDERS 736 10 1:29:27.0
8 SEELETSO MOEPENG 601 11 1:29:48.2
9 OAITSE GANELANG HRDC 676 16 1:45:00.9
10 OMPHILE CALVIN MOLEBATSI GABORONE STRIDERS 746 17 1:45:01.2
11 TREVOR MATLAKALA BIFM 615 27 1:52:48.2
12 EMMANUEL KGANTUMO GABORONE STRIDERS 726 28 1:52:48.8
13 GAPE MACHAO 647 29 1:53:08.5
14 BOIKANYO MOGAMI GABORONE STRIDERS 709 30 1:53:48.8
15 RAJNISH MALASI GABORONE STRIDERS 716 32 1:56:40.8
16 BATSWANA BASIMOLODI 759 34 1:57:20.0
17 TLHALEFO RAMAOLOGA GABORONE STRIDERS 731 35 1:57:37.4
18 KEAMOGETSE MAJAPELO GABORONE STRIDERS 748 37 1:58:34.4
19 LETLHOGONOLO RAMOGALANA CONTEMPORARY LINEN 607 41 2:00:38.0
20 KARABO SEGAETSHO HRDC 674 43 2:01:33.8
21 BENJAMIN SEBONEGO GABORONE STRIDERS 741 46 2:03:24.6
22 KEFILWE A KALAYAKGOSI HRDC 675 48 2:04:32.1
23 TAKUYA ANDO 642 50 2:06:06.2
24 ARNOLD MOKGADI ALEXANDER FORBES 631 51 2:06:51.8
25 BATHUSI MAKOPO 704 54 2:07:25.8
26 ODIRILE KAETWA 655 59 2:09:05.0
27 DOBIE RANKALA 756 62 2:09:06.1
28 GOVERN MASEBA BLIL 618 63 2:09:06.3
29 NEVILLE ROYSTON GABORONE STRIDERS 728 65 2:10:17.9
30 LAMPI SETLABOSIGO GPH 695 67 2:11:03.8
31 TLAMELO MOTHOBI BANC ABC 683 69 2:11:52.8
32 JWAONE TSELAYAKHUMO 662 74 2:14:04.7
33 TIRAFALO OTLHOGILE BLIL 619 77 2:14:32.1
34 EMMANUEL KEPARURA BLIL 621 78 2:14:32.3
35 KGOSIETSILE PUOENG BANC ABC 680 81 2:16:28.7
36 PEPE MOSINYI RUN WID IT 701 86 2:20:04.9
37 OFENTSE KGAOGANO GET BUCKS 625 92 2:23:59.7
38 BAOLOPI SEGOTLONG GPH 693 97 2:28:06.9
39 THERO MOROKA 653 100 2:29:37.1
40 THOMAS BAEPI MOIPOLAI BIC 751 103 2:29:37.7
41 TONIC K. TESE BLIL 620 106 2:30:56.9
42 JOHN MONTSHO 668 108 2:31:46.7
43 ALDRIN MOAHI BANC ABC 682 110 2:32:38.1
44 OTHUSITSE  EDWARD 602 111 2:34:04.1
45 LEATILE BAKWENA GABORONE STRIDERS 729 112 2:34:54.2
46 OTSILE NTENEGI 755 117 2:38:46.9
47 DISANG SIANGA BANC ABC 684 122 2:41:29.4
48 OARABILE CHABA 705 127 2:44:31.9
49 THABISO MAJATSIE HRDC 679 128 2:48:20.1
50 LECHEDZANI KENOSI BIC 749 129 2:48:24.5
51 MARTIN MAKWINJA 757 130 2:48:27.0
52 BABAKISI MOTSAMAI 665 131 2:48:27.3
53 RURI KOPI BANC ABC 681 133 2:52:42.8
54 ALFRED KATLEGO NTWAAGAE GET BUCKS 626 135 2:53:38.4
55 NDIYE NLANDA 664 136 2:53:38.6
56 MOATHUDI OLEBILE GET BUCKS 627 137 2:53:39.8
57 KGAOFELO G PHUDUHUTSWANA 637 138 2:55:02.7
Top

Vet - Male 40 to 49

Place Name Bib No Overall Total Time
1 MORAKI MOKGOSANA 703 13 1:35:33.0
2 REBAONE MMEREKI GABORONE STRIDERS 730 15 1:44:38.4
3 MOOKETSI PULE GABORONE STRIDERS 718 18 1:45:51.3
4 KABO MODIMOOTSILE GABORONE STRIDERS 712 20 1:49:12.2
5 VICTOR MLAZI RUN WID IT 690 25 1:52:06.9
6 LEANARD CHARLES 761 33 1:56:55.3
7 TSHOGANETSO TER TAMASIGA 603 36 1:57:45.0
8 TSHEPO O MOTSEMME BLIL 623 42 2:01:27.1
9 MPHO MOGASHA 658 45 2:02:37.8
10 MICHAEL KNOTT GABORONE STRIDERS 722 52 2:06:56.4
11 BOBBY SEBEO 767 55 2:08:06.6
12 KENNEDY LECAGE BANC ABC 686 56 2:08:07.7
13 THAPELO KALAKE RUN WID IT 692 64 2:09:08.4
14 TSHIKANYANE SESINYI 634 66 2:10:18.0
15 LESEGO SETLHAKO 764 68 2:11:52.1
16 LEEPILE MOLATEDI 666 70 2:12:02.8
17 FORTUNE TAKAINDISA BANC ABC 687 71 2:12:43.7
18 LESANG SELLO BIC 750 72 2:12:51.6
19 MOKWENA MORULANE 768 76 2:14:17.3
20 ITAI MAUNGA BANC ABC 685 79 2:14:35.4
21 KUDAKUSHE MUKUSHI BIHL 671 80 2:15:15.3
22 ONKABETSE A MMEREKI HRDC 677 85 2:18:27.4
23 GAOGAKWE MOKOBI 641 93 2:25:43.9
24 KALEBA RAKWADI 754 95 2:27:33.4
25 GUSTAV SETSHEDI 654 99 2:29:01.5
26 GALEBOE MMELESI GABORONE STRIDERS 732 101 2:29:37.2
27 PHATSIMO LAETSANG GABORONE STRIDERS 740 104 2:29:37.9
28 KABO KGENGWENYANE BLIL 622 109 2:31:56.2
29 QUETT S MMOPELE 669 115 2:36:31.3
30 BALATEDI MAKOSHA BIFM 609 140 3:09:48.0
Top

Master - Male 50 and Over

Place Name Bib No Overall Total Time
1 THAMI SABATA CONTEMPORARY LINEN 608 7 1:18:17.6
2 SECHELE SECHELE GABORONE STRIDERS 739 8 1:19:40.2
3 CEDRIC KETSHABILE CONTEMPORARY LINEN 605 9 1:28:36.0
4 SUNDAY KAMBOLE GABORONE STRIDERS 727 14 1:43:37.2
5 PHILIP MASSEY 639 19 1:46:28.7
6 JOEL FAGIN PETER 752 23 1:51:32.2
7 PELE MOLETA GABORONE STRIDERS 720 26 1:52:35.1
8 MODISE KOOFHETHILE BIFM 611 31 1:54:19.3
9 YAGAN MUKONDE 650 44 2:02:01.0
10 MPAPHI KENOSI GABORONE STRIDERS 710 60 2:09:05.2
11 MOLEBEDI SEGWAGWE GABORONE STRIDERS 744 94 2:26:10.9
12 MAHUBE MPUGWA BIFM 610 125 2:43:31.4